Time;durP1;ratioP1;P1;durP2;ratioP2;P2;SDS_P1;SDS_P2;PMS_P1;PMS_P2;Temp;Humidity;BMP_temperature;BMP_pressure;BME280_temperature;BME280_humidity;BME280_pressure;Samples;Min_cycle;Max_cycle;Signal;HPM_P1;HPM_P2
2022/08/07 16:55:52;;;;;;;;;;;;;;;25.86;48.34;99715.22;5469239;23;19986;-89
2022/08/07 16:58:37;;;;;;;;;;;;;;;25.85;48.54;99721.38;4870035;29;19928;-96
2022/08/07 17:01:41;;;;;;;;;;;;;;;25.78;48.33;99720.09;4824863;29;19975;-92
2022/08/07 17:04:12;;;;;;;;;;;;;;;25.71;48.17;99721.41;4858881;29;19935;-93
2022/08/07 17:06:50;;;;;;;;;;;;;;;25.71;48.25;99726.63;4832458;29;19989;-92
2022/08/07 17:09:36;;;;;;;;;;;;;;;25.67;48.58;99730.38;4850898;29;20444;-93
2022/08/07 17:12:37;;;;;;;;;;;;;;;25.60;48.48;99729.09;4863640;29;20368;-95
2022/08/07 17:15:18;;;;;;;;;;;;;;;25.54;48.84;99732.06;4853299;29;20405;-96
2022/08/07 17:17:53;;;;;;;;;;;;;;;25.53;49.45;99727.78;4871638;29;19928;-96
2022/08/07 17:20:31;;;;;;;;;;;;;;;25.52;49.20;99726.09;4841625;29;19960;-95
2022/08/07 17:23:02;;;;;;;;;;;;;;;25.48;48.80;99724.59;4831412;29;19936;-85
2022/08/07 17:25:49;;;;;;;;;;;;;;;25.43;49.02;99731.84;4829366;29;19928;-85
2022/08/07 17:28:25;;;;;;;;;;;;;;;25.40;49.16;99732.03;4845850;29;19933;-84
2022/08/07 17:31:04;;;;;;;;;;;;;;;25.35;49.27;99734.06;4846100;29;19956;-86
2022/08/07 17:33:49;;;;;;;;;;;;;;;25.27;49.43;99735.38;4845792;29;20004;-85
2022/08/07 17:36:41;;;;;;;;;;;;;;;25.24;49.38;99738.16;4846068;29;19929;-87
2022/08/07 17:39:39;;;;;;;;;;;;;;;25.18;49.65;99746.38;4830025;29;19987;-87
2022/08/07 17:42:33;;;;;;;;;;;;;;;25.14;49.82;99742.28;4845896;29;19935;-87
2022/08/07 17:45:08;;;;;;;;;;;;;;;25.07;49.96;99747.97;4846034;29;19985;-86
2022/08/07 17:47:49;;;;;;;;;;;;;;;25.06;50.29;99739.28;4845807;29;19928;-88
2022/08/07 17:50:26;;;;;;;;;;;;;;;25.00;50.41;99750.06;4845549;29;20309;-85
2022/08/07 17:53:13;;;;;;;;;;;;;;;24.97;50.17;99739.81;4829536;29;19935;-86
2022/08/07 17:56:07;;;;;;;;;;;;;;;24.92;50.30;99749.69;4834887;29;19935;-85
2022/08/07 17:58:58;;;;;;;;;;;;;;;24.87;50.32;99749.13;4844248;29;20391;-85
2022/08/07 18:01:34;;;;;;;;;;;;;;;24.85;50.50;99750.97;4845654;29;20020;-86
2022/08/07 18:04:21;;;;;;;;;;;;;;;24.79;50.47;99759.16;4844636;29;19928;-87
2022/08/07 18:07:02;;;;;;;;;;;;;;;24.79;50.68;99760.91;4844670;29;20390;-87
2022/08/07 18:09:55;;;;;;;;;;;;;;;24.80;50.88;99771.28;4844553;29;19928;-87
2022/08/07 18:12:51;;;;;;;;;;;;;;;24.75;50.68;99770.69;4845431;29;19977;-88
2022/08/07 18:15:23;;;;;;;;;;;;;;;24.67;50.63;99772.88;4844505;29;19929;-87
2022/08/07 18:18:04;;;;;;;;;;;;;;;24.61;50.58;99778.47;4845052;29;19937;-85
2022/08/07 18:20:58;;;;;;;;;;;;;;;24.51;50.58;99782.50;4844330;29;19935;-84
2022/08/07 18:23:57;;;;;;;;;;;;;;;24.47;50.79;99775.78;4845679;29;19932;-85
2022/08/07 18:26:42;;;;;;;;;;;;;;;24.43;51.02;99774.25;4845273;29;19936;-87
2022/08/07 18:29:23;;;;;;;;;;;;;;;24.38;50.88;99781.50;4845448;29;19929;-84
2022/08/07 18:32:18;;;;;;;;;;;;;;;24.29;50.96;99780.25;4845790;29;19929;-89
2022/08/07 18:35:02;;;;;;;;;;;;;;;24.20;51.33;99788.59;4848030;29;20390;-92
2022/08/07 18:37:47;;;;;;;;;;;;;;;24.14;51.57;99793.31;4860127;29;20037;-94
2022/08/07 18:40:43;;;;;;;;;;;;;;;24.06;51.63;99798.06;4850318;29;19932;-89
2022/08/07 18:43:44;;;;;;;;;;;;;;;24.01;51.63;99790.47;4853514;29;19928;-92
2022/08/07 18:46:22;;;;;;;;;;;;;;;23.99;51.63;99793.16;4842219;29;19936;-90
2022/08/07 18:49:05;;;;;;;;;;;;;;;23.94;52.18;99797.81;4844588;29;19936;-92
2022/08/07 18:52:03;;;;;;;;;;;;;;;23.88;52.16;99798.09;4847263;29;19928;-89
2022/08/07 18:55:01;;;;;;;;;;;;;;;23.84;52.26;99799.19;4851722;29;20419;-91
2022/08/07 18:57:56;;;;;;;;;;;;;;;23.79;52.18;99798.59;4845282;29;19929;-90
2022/08/07 19:00:37;;;;;;;;;;;;;;;23.73;52.23;99800.69;4844664;29;20431;-95
2022/08/07 19:03:13;;;;;;;;;;;;;;;23.66;52.42;99807.97;4830159;29;19967;-93
2022/08/07 19:05:46;;;;;;;;;;;;;;;23.58;52.40;99804.94;4853803;29;19954;-93
2022/08/07 19:08:44;;;;;;;;;;;;;;;23.49;52.70;99810.59;4851516;29;19929;-93
2022/08/07 19:11:19;;;;;;;;;;;;;;;23.41;52.74;99817.16;4825036;29;19929;-88
2022/08/07 19:14:11;;;;;;;;;;;;;;;23.31;52.88;99814.97;4811011;29;20343;-87
2022/08/07 19:16:51;;;;;;;;;;;;;;;23.29;52.99;99814.22;4826781;29;19978;-89
2022/08/07 19:19:41;;;;;;;;;;;;;;;23.29;53.15;99818.56;4812495;29;19933;-91
2022/08/07 19:22:17;;;;;;;;;;;;;;;23.24;53.25;99818.81;4826870;29;19987;-92
2022/08/07 19:25:02;;;;;;;;;;;;;;;23.25;53.42;99828.28;4827288;29;19929;-93
2022/08/07 19:27:38;;;;;;;;;;;;;;;23.23;53.35;99835.34;4834930;29;19988;-90
2022/08/07 19:30:32;;;;;;;;;;;;;;;23.24;53.42;99825.78;4849097;29;19919;-92
2022/08/07 19:33:22;;;;;;;;;;;;;;;23.23;53.38;99837.09;4807893;29;20378;-87
2022/08/07 19:36:02;;;;;;;;;;;;;;;23.20;53.37;99838.09;4825947;29;20017;-85
2022/08/07 19:38:34;;;;;;;;;;;;;;;23.17;53.30;99834.81;4825643;29;19938;-87
2022/08/07 19:41:24;;;;;;;;;;;;;;;23.14;53.28;99829.75;4858415;29;19943;-88
2022/08/07 19:44:18;;;;;;;;;;;;;;;23.10;53.31;99833.44;4843468;29;20371;-88
2022/08/07 19:46:52;;;;;;;;;;;;;;;23.07;53.30;99838.78;4829729;29;19929;-87
2022/08/07 19:49:27;;;;;;;;;;;;;;;23.05;53.35;99840.63;4825208;29;19928;-88
2022/08/07 19:52:17;;;;;;;;;;;;;;;23.04;53.49;99846.75;4826272;29;19928;-87
2022/08/07 19:54:50;;;;;;;;;;;;;;;23.05;53.06;99844.09;4809511;29;19932;-87
2022/08/07 19:57:27;;;;;;;;;;;;;;;23.06;53.32;99843.16;4809942;29;20042;-87
2022/08/07 20:00:20;;;;;;;;;;;;;;;23.05;53.42;99845.84;4809473;29;19936;-88
2022/08/07 20:02:56;;;;;;;;;;;;;;;23.03;53.37;99845.06;4794905;29;19929;-87
2022/08/07 20:05:28;;;;;;;;;;;;;;;22.96;53.25;99841.09;4810019;29;20023;-86
2022/08/07 20:07:59;;;;;;;;;;;;;;;22.90;53.33;99847.41;4826022;29;19939;-86
2022/08/07 20:10:29;;;;;;;;;;;;;;;22.90;53.41;99851.78;4825309;29;19928;-85
2022/08/07 20:13:23;;;;;;;;;;;;;;;22.85;53.39;99864.19;4809115;29;20413;-86
2022/08/07 20:16:01;;;;;;;;;;;;;;;22.78;53.49;99854.97;4825372;29;19929;-84
